sensor_id;sensor_type;location;lat;lon;timestamp;P1;durP1;ratioP1;P2;durP2;ratioP2
4756;SDS011;2392;52.578;13.426;2022-10-17T00:00:16;10.13;;;6.90;;
4756;SDS011;2392;52.578;13.426;2022-10-17T00:02:43;9.70;;;7.27;;
4756;SDS011;2392;52.578;13.426;2022-10-17T00:05:10;8.70;;;7.20;;
4756;SDS011;2392;52.578;13.426;2022-10-17T00:07:37;10.43;;;6.63;;
4756;SDS011;2392;52.578;13.426;2022-10-17T00:10:05;7.70;;;6.93;;
4756;SDS011;2392;52.578;13.426;2022-10-17T00:12:33;7.77;;;6.97;;
4756;SDS011;2392;52.578;13.426;2022-10-17T00:15:01;7.60;;;6.80;;
4756;SDS011;2392;52.578;13.426;2022-10-17T00:17:29;11.07;;;7.40;;
4756;SDS011;2392;52.578;13.426;2022-10-17T00:19:57;7.47;;;6.70;;
4756;SDS011;2392;52.578;13.426;2022-10-17T00:22:24;8.90;;;7.07;;
4756;SDS011;2392;52.578;13.426;2022-10-17T00:24:51;11.27;;;7.30;;
4756;SDS011;2392;52.578;13.426;2022-10-17T00:27:19;7.90;;;6.50;;
4756;SDS011;2392;52.578;13.426;2022-10-17T00:29:47;11.70;;;8.17;;
4756;SDS011;2392;52.578;13.426;2022-10-17T00:32:14;7.17;;;6.43;;
4756;SDS011;2392;52.578;13.426;2022-10-17T00:34:41;9.07;;;6.90;;
4756;SDS011;2392;52.578;13.426;2022-10-17T00:37:08;10.10;;;7.00;;
4756;SDS011;2392;52.578;13.426;2022-10-17T00:39:35;9.17;;;6.67;;
4756;SDS011;2392;52.578;13.426;2022-10-17T00:42:02;8.03;;;6.50;;
4756;SDS011;2392;52.578;13.426;2022-10-17T00:47:37;8.47;;;6.80;;
4756;SDS011;2392;52.578;13.426;2022-10-17T00:50:06;8.57;;;7.20;;
4756;SDS011;2392;52.578;13.426;2022-10-17T00:52:34;8.50;;;6.50;;
4756;SDS011;2392;52.578;13.426;2022-10-17T00:55:02;12.50;;;8.10;;
4756;SDS011;2392;52.578;13.426;2022-10-17T00:57:34;7.93;;;6.87;;
4756;SDS011;2392;52.578;13.426;2022-10-17T01:00:03;10.53;;;8.00;;
4756;SDS011;2392;52.578;13.426;2022-10-17T01:02:35;8.20;;;6.97;;
4756;SDS011;2392;52.578;13.426;2022-10-17T01:05:02;9.10;;;7.10;;
4756;SDS011;2392;52.578;13.426;2022-10-17T01:07:32;7.00;;;6.30;;
4756;SDS011;2392;52.578;13.426;2022-10-17T01:09:59;9.10;;;7.70;;
4756;SDS011;2392;52.578;13.426;2022-10-17T01:12:27;8.50;;;6.60;;
4756;SDS011;2392;52.578;13.426;2022-10-17T01:15:05;7.03;;;6.30;;
4756;SDS011;2392;52.578;13.426;2022-10-17T01:17:42;5.70;;;5.20;;
4756;SDS011;2392;52.578;13.426;2022-10-17T01:20:28;8.63;;;7.23;;
4756;SDS011;2392;52.578;13.426;2022-10-17T01:26:22;8.53;;;6.90;;
4756;SDS011;2392;52.578;13.426;2022-10-17T01:31:57;7.00;;;6.30;;
4756;SDS011;2392;52.578;13.426;2022-10-17T01:34:28;8.57;;;6.37;;
4756;SDS011;2392;52.578;13.426;2022-10-17T01:37:01;7.40;;;6.20;;
4756;SDS011;2392;52.578;13.426;2022-10-17T01:39:35;6.67;;;5.97;;
4756;SDS011;2392;52.578;13.426;2022-10-17T01:42:10;5.00;;;4.60;;
4756;SDS011;2392;52.578;13.426;2022-10-17T01:44:41;6.40;;;5.70;;
4756;SDS011;2392;52.578;13.426;2022-10-17T01:47:16;6.53;;;5.90;;
4756;SDS011;2392;52.578;13.426;2022-10-17T01:49:45;9.90;;;6.10;;
4756;SDS011;2392;52.578;13.426;2022-10-17T01:52:16;6.97;;;6.27;;
4756;SDS011;2392;52.578;13.426;2022-10-17T01:54:46;5.90;;;5.40;;
4756;SDS011;2392;52.578;13.426;2022-10-17T01:57:18;10.93;;;7.33;;
4756;SDS011;2392;52.578;13.426;2022-10-17T01:59:48;6.57;;;5.97;;
4756;SDS011;2392;52.578;13.426;2022-10-17T02:02:21;7.07;;;6.37;;
4756;SDS011;2392;52.578;13.426;2022-10-17T02:04:49;7.17;;;5.80;;
4756;SDS011;2392;52.578;13.426;2022-10-17T02:07:18;10.03;;;5.50;;
4756;SDS011;2392;52.578;13.426;2022-10-17T02:09:45;7.43;;;5.87;;
4756;SDS011;2392;52.578;13.426;2022-10-17T02:12:15;13.73;;;5.90;;
4756;SDS011;2392;52.578;13.426;2022-10-17T02:14:57;6.27;;;5.50;;
4756;SDS011;2392;52.578;13.426;2022-10-17T02:17:40;7.80;;;5.50;;
4756;SDS011;2392;52.578;13.426;2022-10-17T02:20:15;10.13;;;5.77;;
4756;SDS011;2392;52.578;13.426;2022-10-17T02:22:48;6.10;;;5.60;;
4756;SDS011;2392;52.578;13.426;2022-10-17T02:25:20;7.20;;;5.33;;
4756;SDS011;2392;52.578;13.426;2022-10-17T02:27:55;6.47;;;5.83;;
4756;SDS011;2392;52.578;13.426;2022-10-17T02:30:28;6.23;;;5.30;;
4756;SDS011;2392;52.578;13.426;2022-10-17T02:33:05;6.50;;;5.37;;
4756;SDS011;2392;52.578;13.426;2022-10-17T02:35:35;6.83;;;6.10;;
4756;SDS011;2392;52.578;13.426;2022-10-17T02:38:05;7.60;;;6.03;;
4756;SDS011;2392;52.578;13.426;2022-10-17T02:40:34;6.83;;;5.67;;
4756;SDS011;2392;52.578;13.426;2022-10-17T02:43:02;8.77;;;5.13;;
4756;SDS011;2392;52.578;13.426;2022-10-17T02:45:30;5.57;;;5.07;;
4756;SDS011;2392;52.578;13.426;2022-10-17T02:48:04;5.77;;;5.30;;
4756;SDS011;2392;52.578;13.426;2022-10-17T02:50:37;5.57;;;5.00;;
4756;SDS011;2392;52.578;13.426;2022-10-17T02:53:11;5.57;;;4.97;;
4756;SDS011;2392;52.578;13.426;2022-10-17T02:55:42;6.70;;;6.10;;
4756;SDS011;2392;52.578;13.426;2022-10-17T02:58:15;5.40;;;4.97;;
4756;SDS011;2392;52.578;13.426;2022-10-17T03:00:45;5.37;;;4.93;;
4756;SDS011;2392;52.578;13.426;2022-10-17T03:03:19;7.93;;;5.43;;
4756;SDS011;2392;52.578;13.426;2022-10-17T03:05:47;6.07;;;4.10;;
4756;SDS011;2392;52.578;13.426;2022-10-17T03:08:14;5.37;;;4.80;;
4756;SDS011;2392;52.578;13.426;2022-10-17T03:10:41;8.50;;;5.67;;
4756;SDS011;2392;52.578;13.426;2022-10-17T03:13:08;11.00;;;6.00;;
4756;SDS011;2392;52.578;13.426;2022-10-17T03:15:38;14.43;;;4.87;;
4756;SDS011;2392;52.578;13.426;2022-10-17T03:18:05;6.20;;;5.30;;
4756;SDS011;2392;52.578;13.426;2022-10-17T03:20:34;5.47;;;5.00;;
4756;SDS011;2392;52.578;13.426;2022-10-17T03:23:01;10.50;;;4.97;;
4756;SDS011;2392;52.578;13.426;2022-10-17T03:25:28;6.13;;;4.60;;
4756;SDS011;2392;52.578;13.426;2022-10-17T03:27:56;5.17;;;4.77;;
4756;SDS011;2392;52.578;13.426;2022-10-17T03:30:24;6.73;;;4.63;;
4756;SDS011;2392;52.578;13.426;2022-10-17T03:32:52;5.23;;;4.83;;
4756;SDS011;2392;52.578;13.426;2022-10-17T03:35:19;5.93;;;4.93;;
4756;SDS011;2392;52.578;13.426;2022-10-17T03:37:49;8.20;;;5.90;;
4756;SDS011;2392;52.578;13.426;2022-10-17T03:40:18;4.87;;;4.40;;
4756;SDS011;2392;52.578;13.426;2022-10-17T03:42:46;8.90;;;4.53;;
4756;SDS011;2392;52.578;13.426;2022-10-17T03:45:13;6.43;;;4.80;;
4756;SDS011;2392;52.578;13.426;2022-10-17T03:47:40;5.13;;;4.10;;
4756;SDS011;2392;52.578;13.426;2022-10-17T03:50:07;5.00;;;4.50;;
4756;SDS011;2392;52.578;13.426;2022-10-17T03:52:36;6.10;;;5.20;;
4756;SDS011;2392;52.578;13.426;2022-10-17T03:55:05;5.53;;;5.00;;
4756;SDS011;2392;52.578;13.426;2022-10-17T03:57:33;4.30;;;3.93;;
4756;SDS011;2392;52.578;13.426;2022-10-17T04:00:03;6.03;;;4.40;;
4756;SDS011;2392;52.578;13.426;2022-10-17T04:02:39;4.90;;;4.50;;
4756;SDS011;2392;52.578;13.426;2022-10-17T04:05:09;4.43;;;3.97;;
4756;SDS011;2392;52.578;13.426;2022-10-17T04:07:36;5.30;;;4.80;;
4756;SDS011;2392;52.578;13.426;2022-10-17T04:10:05;4.77;;;4.37;;
4756;SDS011;2392;52.578;13.426;2022-10-17T04:12:33;4.57;;;4.20;;
4756;SDS011;2392;52.578;13.426;2022-10-17T04:15:00;5.33;;;4.60;;
4756;SDS011;2392;52.578;13.426;2022-10-17T04:17:28;4.47;;;4.07;;
4756;SDS011;2392;52.578;13.426;2022-10-17T04:19:56;5.13;;;4.63;;
4756;SDS011;2392;52.578;13.426;2022-10-17T04:22:23;4.73;;;4.43;;
4756;SDS011;2392;52.578;13.426;2022-10-17T04:24:50;5.17;;;4.57;;
4756;SDS011;2392;52.578;13.426;2022-10-17T04:27:33;5.70;;;5.10;;
4756;SDS011;2392;52.578;13.426;2022-10-17T04:30:00;6.27;;;5.70;;
4756;SDS011;2392;52.578;13.426;2022-10-17T04:32:30;7.27;;;5.50;;
4756;SDS011;2392;52.578;13.426;2022-10-17T04:35:26;8.10;;;5.13;;
4756;SDS011;2392;52.578;13.426;2022-10-17T04:38:00;5.03;;;4.53;;
4756;SDS011;2392;52.578;13.426;2022-10-17T04:40:27;7.73;;;5.40;;
4756;SDS011;2392;52.578;13.426;2022-10-17T04:42:55;8.30;;;6.47;;
4756;SDS011;2392;52.578;13.426;2022-10-17T04:45:30;6.60;;;5.97;;
4756;SDS011;2392;52.578;13.426;2022-10-17T04:48:00;6.47;;;5.83;;
4756;SDS011;2392;52.578;13.426;2022-10-17T04:50:27;7.57;;;6.43;;
4756;SDS011;2392;52.578;13.426;2022-10-17T04:53:15;7.43;;;6.60;;
4756;SDS011;2392;52.578;13.426;2022-10-17T04:55:43;11.00;;;7.83;;
4756;SDS011;2392;52.578;13.426;2022-10-17T04:58:11;10.10;;;7.23;;
4756;SDS011;2392;52.578;13.426;2022-10-17T05:00:38;10.53;;;7.20;;
4756;SDS011;2392;52.578;13.426;2022-10-17T05:03:12;10.97;;;6.40;;
4756;SDS011;2392;52.578;13.426;2022-10-17T05:05:40;10.00;;;7.80;;
4756;SDS011;2392;52.578;13.426;2022-10-17T05:08:09;11.90;;;7.83;;
4756;SDS011;2392;52.578;13.426;2022-10-17T05:10:38;8.00;;;7.40;;
4756;SDS011;2392;52.578;13.426;2022-10-17T05:13:06;8.80;;;7.57;;
4756;SDS011;2392;52.578;13.426;2022-10-17T05:15:36;12.77;;;6.87;;
4756;SDS011;2392;52.578;13.426;2022-10-17T05:18:04;5.57;;;5.07;;
4756;SDS011;2392;52.578;13.426;2022-10-17T05:20:31;15.57;;;6.77;;
4756;SDS011;2392;52.578;13.426;2022-10-17T05:22:59;6.73;;;6.13;;
4756;SDS011;2392;52.578;13.426;2022-10-17T05:25:32;12.13;;;7.10;;
4756;SDS011;2392;52.578;13.426;2022-10-17T05:27:58;8.43;;;6.60;;
4756;SDS011;2392;52.578;13.426;2022-10-17T05:30:26;8.43;;;7.00;;
4756;SDS011;2392;52.578;13.426;2022-10-17T05:33:00;6.87;;;6.27;;
4756;SDS011;2392;52.578;13.426;2022-10-17T05:35:27;8.10;;;6.00;;
4756;SDS011;2392;52.578;13.426;2022-10-17T05:37:54;7.10;;;6.40;;
4756;SDS011;2392;52.578;13.426;2022-10-17T05:40:23;6.87;;;6.23;;
4756;SDS011;2392;52.578;13.426;2022-10-17T05:42:52;7.20;;;6.60;;
4756;SDS011;2392;52.578;13.426;2022-10-17T05:45:20;7.73;;;6.57;;
4756;SDS011;2392;52.578;13.426;2022-10-17T05:47:47;9.80;;;7.47;;
4756;SDS011;2392;52.578;13.426;2022-10-17T05:50:16;6.90;;;6.10;;
4756;SDS011;2392;52.578;13.426;2022-10-17T05:53:05;7.10;;;6.40;;
4756;SDS011;2392;52.578;13.426;2022-10-17T05:55:37;6.63;;;5.90;;
4756;SDS011;2392;52.578;13.426;2022-10-17T05:58:05;7.37;;;6.67;;
4756;SDS011;2392;52.578;13.426;2022-10-17T06:00:36;7.53;;;6.70;;
4756;SDS011;2392;52.578;13.426;2022-10-17T06:03:03;12.00;;;6.80;;
4756;SDS011;2392;52.578;13.426;2022-10-17T06:05:32;7.17;;;6.57;;
4756;SDS011;2392;52.578;13.426;2022-10-17T06:08:01;7.10;;;6.47;;
4756;SDS011;2392;52.578;13.426;2022-10-17T06:10:32;7.00;;;6.40;;
4756;SDS011;2392;52.578;13.426;2022-10-17T06:12:59;7.13;;;6.33;;
4756;SDS011;2392;52.578;13.426;2022-10-17T06:15:26;8.47;;;5.50;;
4756;SDS011;2392;52.578;13.426;2022-10-17T06:17:59;7.23;;;6.60;;
4756;SDS011;2392;52.578;13.426;2022-10-17T06:20:26;6.90;;;6.23;;
4756;SDS011;2392;52.578;13.426;2022-10-17T06:22:54;7.20;;;6.60;;
4756;SDS011;2392;52.578;13.426;2022-10-17T06:25:46;7.03;;;6.40;;
4756;SDS011;2392;52.578;13.426;2022-10-17T06:28:12;7.17;;;6.27;;
4756;SDS011;2392;52.578;13.426;2022-10-17T06:30:39;8.37;;;7.57;;
4756;SDS011;2392;52.578;13.426;2022-10-17T06:33:07;8.20;;;6.40;;
4756;SDS011;2392;52.578;13.426;2022-10-17T06:35:34;7.40;;;6.70;;
4756;SDS011;2392;52.578;13.426;2022-10-17T06:38:03;13.60;;;6.53;;
4756;SDS011;2392;52.578;13.426;2022-10-17T06:40:32;6.90;;;6.30;;
4756;SDS011;2392;52.578;13.426;2022-10-17T06:42:59;9.60;;;6.57;;
4756;SDS011;2392;52.578;13.426;2022-10-17T06:45:52;9.13;;;6.20;;
4756;SDS011;2392;52.578;13.426;2022-10-17T06:48:32;6.33;;;5.80;;
4756;SDS011;2392;52.578;13.426;2022-10-17T06:51:17;6.17;;;5.57;;
4756;SDS011;2392;52.578;13.426;2022-10-17T06:53:53;6.47;;;5.80;;
4756;SDS011;2392;52.578;13.426;2022-10-17T06:56:46;6.67;;;5.90;;
4756;SDS011;2392;52.578;13.426;2022-10-17T06:59:18;6.50;;;5.57;;
4756;SDS011;2392;52.578;13.426;2022-10-17T07:01:54;7.50;;;6.90;;
4756;SDS011;2392;52.578;13.426;2022-10-17T07:04:23;7.00;;;5.60;;
4756;SDS011;2392;52.578;13.426;2022-10-17T07:06:50;6.30;;;5.70;;
4756;SDS011;2392;52.578;13.426;2022-10-17T07:09:21;6.07;;;5.40;;
4756;SDS011;2392;52.578;13.426;2022-10-17T07:11:49;6.00;;;5.50;;
4756;SDS011;2392;52.578;13.426;2022-10-17T07:14:17;7.13;;;5.40;;
4756;SDS011;2392;52.578;13.426;2022-10-17T07:16:45;6.33;;;5.50;;
4756;SDS011;2392;52.578;13.426;2022-10-17T07:19:20;6.27;;;5.67;;
4756;SDS011;2392;52.578;13.426;2022-10-17T07:21:48;9.40;;;5.60;;
4756;SDS011;2392;52.578;13.426;2022-10-17T07:24:15;7.13;;;6.37;;
4756;SDS011;2392;52.578;13.426;2022-10-17T07:26:52;6.70;;;5.33;;
4756;SDS011;2392;52.578;13.426;2022-10-17T07:29:19;7.93;;;5.43;;
4756;SDS011;2392;52.578;13.426;2022-10-17T07:31:54;6.93;;;6.23;;
4756;SDS011;2392;52.578;13.426;2022-10-17T07:34:21;7.07;;;6.20;;
4756;SDS011;2392;52.578;13.426;2022-10-17T07:36:51;5.90;;;5.37;;
4756;SDS011;2392;52.578;13.426;2022-10-17T07:39:19;6.00;;;5.30;;
4756;SDS011;2392;52.578;13.426;2022-10-17T07:41:47;5.97;;;5.37;;
4756;SDS011;2392;52.578;13.426;2022-10-17T07:44:16;14.00;;;5.27;;
4756;SDS011;2392;52.578;13.426;2022-10-17T07:46:47;15.47;;;5.23;;
4756;SDS011;2392;52.578;13.426;2022-10-17T07:49:15;6.40;;;4.87;;
4756;SDS011;2392;52.578;13.426;2022-10-17T07:51:42;6.50;;;4.73;;
4756;SDS011;2392;52.578;13.426;2022-10-17T07:54:09;6.90;;;5.03;;
4756;SDS011;2392;52.578;13.426;2022-10-17T07:56:36;5.63;;;4.57;;
4756;SDS011;2392;52.578;13.426;2022-10-17T07:59:02;4.87;;;4.47;;
4756;SDS011;2392;52.578;13.426;2022-10-17T08:01:31;4.53;;;4.13;;
4756;SDS011;2392;52.578;13.426;2022-10-17T08:03:58;5.10;;;4.37;;
4756;SDS011;2392;52.578;13.426;2022-10-17T08:06:24;4.80;;;4.30;;
4756;SDS011;2392;52.578;13.426;2022-10-17T08:08:51;11.63;;;4.43;;
4756;SDS011;2392;52.578;13.426;2022-10-17T08:11:18;7.20;;;4.50;;
4756;SDS011;2392;52.578;13.426;2022-10-17T08:13:46;4.97;;;4.23;;
4756;SDS011;2392;52.578;13.426;2022-10-17T08:16:13;4.80;;;4.40;;
4756;SDS011;2392;52.578;13.426;2022-10-17T08:18:42;4.40;;;4.00;;
4756;SDS011;2392;52.578;13.426;2022-10-17T08:21:09;5.50;;;4.50;;
4756;SDS011;2392;52.578;13.426;2022-10-17T08:23:37;6.00;;;3.80;;
4756;SDS011;2392;52.578;13.426;2022-10-17T08:26:05;8.67;;;4.90;;
4756;SDS011;2392;52.578;13.426;2022-10-17T08:28:35;4.83;;;4.53;;
4756;SDS011;2392;52.578;13.426;2022-10-17T08:31:02;4.93;;;4.37;;
4756;SDS011;2392;52.578;13.426;2022-10-17T08:33:30;8.60;;;4.90;;
4756;SDS011;2392;52.578;13.426;2022-10-17T08:35:58;6.00;;;4.07;;
4756;SDS011;2392;52.578;13.426;2022-10-17T08:38:26;11.50;;;5.90;;
4756;SDS011;2392;52.578;13.426;2022-10-17T08:40:54;7.90;;;4.07;;
4756;SDS011;2392;52.578;13.426;2022-10-17T08:43:28;3.87;;;3.57;;
4756;SDS011;2392;52.578;13.426;2022-10-17T08:46:01;10.90;;;4.50;;
4756;SDS011;2392;52.578;13.426;2022-10-17T08:48:33;4.43;;;3.70;;
4756;SDS011;2392;52.578;13.426;2022-10-17T08:51:06;4.40;;;4.10;;
4756;SDS011;2392;52.578;13.426;2022-10-17T08:53:39;5.50;;;4.13;;
4756;SDS011;2392;52.578;13.426;2022-10-17T08:56:12;5.97;;;4.23;;
4756;SDS011;2392;52.578;13.426;2022-10-17T08:58:43;5.40;;;3.80;;
4756;SDS011;2392;52.578;13.426;2022-10-17T09:01:12;10.10;;;4.43;;
4756;SDS011;2392;52.578;13.426;2022-10-17T09:03:52;16.57;;;4.10;;
4756;SDS011;2392;52.578;13.426;2022-10-17T09:06:45;6.63;;;4.00;;
4756;SDS011;2392;52.578;13.426;2022-10-17T09:09:21;4.40;;;3.53;;
4756;SDS011;2392;52.578;13.426;2022-10-17T09:12:02;5.40;;;4.17;;
4756;SDS011;2392;52.578;13.426;2022-10-17T09:14:45;8.57;;;5.00;;
4756;SDS011;2392;52.578;13.426;2022-10-17T09:17:35;4.17;;;3.77;;
4756;SDS011;2392;52.578;13.426;2022-10-17T09:20:09;4.97;;;3.90;;
4756;SDS011;2392;52.578;13.426;2022-10-17T09:22:44;5.00;;;3.63;;
4756;SDS011;2392;52.578;13.426;2022-10-17T09:25:18;9.37;;;3.80;;
4756;SDS011;2392;52.578;13.426;2022-10-17T09:27:50;4.73;;;3.40;;
4756;SDS011;2392;52.578;13.426;2022-10-17T09:30:30;6.70;;;3.63;;
4756;SDS011;2392;52.578;13.426;2022-10-17T09:33:07;3.67;;;3.37;;
4756;SDS011;2392;52.578;13.426;2022-10-17T09:35:36;5.60;;;3.63;;
4756;SDS011;2392;52.578;13.426;2022-10-17T09:38:05;4.50;;;3.77;;
4756;SDS011;2392;52.578;13.426;2022-10-17T09:40:35;9.00;;;3.40;;
4756;SDS011;2392;52.578;13.426;2022-10-17T09:43:04;4.30;;;3.73;;
4756;SDS011;2392;52.578;13.426;2022-10-17T09:45:34;7.30;;;3.10;;
4756;SDS011;2392;52.578;13.426;2022-10-17T09:48:10;3.93;;;3.60;;
4756;SDS011;2392;52.578;13.426;2022-10-17T09:50:45;5.37;;;3.17;;
4756;SDS011;2392;52.578;13.426;2022-10-17T09:53:14;6.50;;;2.97;;
4756;SDS011;2392;52.578;13.426;2022-10-17T09:55:45;3.27;;;3.00;;
4756;SDS011;2392;52.578;13.426;2022-10-17T09:58:14;3.37;;;2.87;;
4756;SDS011;2392;52.578;13.426;2022-10-17T10:00:42;6.63;;;2.87;;
4756;SDS011;2392;52.578;13.426;2022-10-17T10:03:12;3.87;;;3.33;;
4756;SDS011;2392;52.578;13.426;2022-10-17T10:05:42;4.73;;;2.93;;
4756;SDS011;2392;52.578;13.426;2022-10-17T10:08:25;5.87;;;3.50;;
4756;SDS011;2392;52.578;13.426;2022-10-17T10:11:02;5.60;;;3.10;;
4756;SDS011;2392;52.578;13.426;2022-10-17T10:13:31;3.93;;;3.00;;
4756;SDS011;2392;52.578;13.426;2022-10-17T10:16:12;3.57;;;2.80;;
4756;SDS011;2392;52.578;13.426;2022-10-17T10:18:42;3.03;;;2.83;;
4756;SDS011;2392;52.578;13.426;2022-10-17T10:21:11;3.33;;;3.03;;
4756;SDS011;2392;52.578;13.426;2022-10-17T10:23:41;3.10;;;2.90;;
4756;SDS011;2392;52.578;13.426;2022-10-17T10:26:19;5.00;;;3.17;;
4756;SDS011;2392;52.578;13.426;2022-10-17T10:28:53;4.43;;;3.20;;
4756;SDS011;2392;52.578;13.426;2022-10-17T10:34:12;3.17;;;2.93;;
4756;SDS011;2392;52.578;13.426;2022-10-17T10:36:46;9.10;;;3.37;;
4756;SDS011;2392;52.578;13.426;2022-10-17T10:39:35;9.67;;;3.40;;
4756;SDS011;2392;52.578;13.426;2022-10-17T10:42:06;5.10;;;3.57;;
4756;SDS011;2392;52.578;13.426;2022-10-17T10:44:42;5.73;;;2.70;;
4756;SDS011;2392;52.578;13.426;2022-10-17T10:47:16;3.10;;;2.90;;
4756;SDS011;2392;52.578;13.426;2022-10-17T10:49:46;4.27;;;2.70;;
4756;SDS011;2392;52.578;13.426;2022-10-17T10:52:18;3.23;;;2.93;;
4756;SDS011;2392;52.578;13.426;2022-10-17T10:54:58;2.97;;;2.67;;
4756;SDS011;2392;52.578;13.426;2022-10-17T10:57:31;5.50;;;2.70;;
4756;SDS011;2392;52.578;13.426;2022-10-17T11:00:03;4.27;;;3.30;;
4756;SDS011;2392;52.578;13.426;2022-10-17T11:02:39;4.63;;;2.90;;
4756;SDS011;2392;52.578;13.426;2022-10-17T11:05:12;5.67;;;3.10;;
4756;SDS011;2392;52.578;13.426;2022-10-17T11:07:45;6.07;;;3.00;;
4756;SDS011;2392;52.578;13.426;2022-10-17T11:10:22;6.27;;;2.87;;
4756;SDS011;2392;52.578;13.426;2022-10-17T11:12:56;2.90;;;2.70;;
4756;SDS011;2392;52.578;13.426;2022-10-17T11:15:30;4.10;;;3.20;;
4756;SDS011;2392;52.578;13.426;2022-10-17T11:18:02;6.57;;;3.17;;
4756;SDS011;2392;52.578;13.426;2022-10-17T11:20:33;2.57;;;2.40;;
4756;SDS011;2392;52.578;13.426;2022-10-17T11:23:13;11.87;;;2.40;;
4756;SDS011;2392;52.578;13.426;2022-10-17T11:25:46;5.17;;;2.50;;
4756;SDS011;2392;52.578;13.426;2022-10-17T11:28:16;3.07;;;2.83;;
4756;SDS011;2392;52.578;13.426;2022-10-17T11:30:46;2.93;;;2.73;;
4756;SDS011;2392;52.578;13.426;2022-10-17T11:33:17;3.37;;;2.80;;
4756;SDS011;2392;52.578;13.426;2022-10-17T11:35:50;3.30;;;3.00;;
4756;SDS011;2392;52.578;13.426;2022-10-17T11:38:20;5.80;;;2.47;;
4756;SDS011;2392;52.578;13.426;2022-10-17T11:40:56;8.40;;;2.80;;
4756;SDS011;2392;52.578;13.426;2022-10-17T11:43:26;6.33;;;2.27;;
4756;SDS011;2392;52.578;13.426;2022-10-17T11:45:57;2.30;;;2.10;;
4756;SDS011;2392;52.578;13.426;2022-10-17T11:48:28;4.50;;;3.03;;
4756;SDS011;2392;52.578;13.426;2022-10-17T11:51:01;3.37;;;2.33;;
4756;SDS011;2392;52.578;13.426;2022-10-17T11:53:33;4.93;;;2.83;;
4756;SDS011;2392;52.578;13.426;2022-10-17T11:56:13;4.60;;;2.80;;
4756;SDS011;2392;52.578;13.426;2022-10-17T11:58:44;3.60;;;2.70;;
4756;SDS011;2392;52.578;13.426;2022-10-17T12:01:20;7.87;;;3.20;;
4756;SDS011;2392;52.578;13.426;2022-10-17T12:04:02;3.30;;;2.83;;
4756;SDS011;2392;52.578;13.426;2022-10-17T12:06:44;4.37;;;2.40;;
4756;SDS011;2392;52.578;13.426;2022-10-17T12:09:21;3.70;;;2.70;;
4756;SDS011;2392;52.578;13.426;2022-10-17T12:11:52;3.30;;;2.63;;
4756;SDS011;2392;52.578;13.426;2022-10-17T12:17:05;5.60;;;3.00;;
4756;SDS011;2392;52.578;13.426;2022-10-17T12:19:46;3.87;;;2.97;;
4756;SDS011;2392;52.578;13.426;2022-10-17T12:22:17;6.70;;;3.10;;
4756;SDS011;2392;52.578;13.426;2022-10-17T12:24:52;5.60;;;3.30;;
4756;SDS011;2392;52.578;13.426;2022-10-17T12:27:35;3.03;;;2.70;;
4756;SDS011;2392;52.578;13.426;2022-10-17T12:30:15;5.50;;;2.57;;
4756;SDS011;2392;52.578;13.426;2022-10-17T12:33:03;6.33;;;3.37;;
4756;SDS011;2392;52.578;13.426;2022-10-17T12:35:39;3.57;;;3.10;;
4756;SDS011;2392;52.578;13.426;2022-10-17T12:40:55;3.37;;;2.97;;
4756;SDS011;2392;52.578;13.426;2022-10-17T12:46:41;3.47;;;3.17;;
4756;SDS011;2392;52.578;13.426;2022-10-17T12:49:19;5.10;;;2.87;;
4756;SDS011;2392;52.578;13.426;2022-10-17T12:52:13;4.37;;;3.00;;
4756;SDS011;2392;52.578;13.426;2022-10-17T12:54:46;5.73;;;2.80;;
4756;SDS011;2392;52.578;13.426;2022-10-17T12:57:19;3.20;;;3.00;;
4756;SDS011;2392;52.578;13.426;2022-10-17T12:59:51;5.70;;;2.90;;
4756;SDS011;2392;52.578;13.426;2022-10-17T13:02:19;10.40;;;3.43;;
4756;SDS011;2392;52.578;13.426;2022-10-17T13:04:49;3.20;;;3.00;;
4756;SDS011;2392;52.578;13.426;2022-10-17T13:07:24;3.07;;;2.77;;
4756;SDS011;2392;52.578;13.426;2022-10-17T13:09:51;7.50;;;3.63;;
4756;SDS011;2392;52.578;13.426;2022-10-17T13:12:19;3.33;;;3.03;;
4756;SDS011;2392;52.578;13.426;2022-10-17T13:14:49;3.00;;;2.80;;
4756;SDS011;2392;52.578;13.426;2022-10-17T13:17:21;6.33;;;3.50;;
4756;SDS011;2392;52.578;13.426;2022-10-17T13:19:50;3.33;;;3.03;;
4756;SDS011;2392;52.578;13.426;2022-10-17T13:22:18;6.27;;;3.60;;
4756;SDS011;2392;52.578;13.426;2022-10-17T13:24:48;4.83;;;3.20;;
4756;SDS011;2392;52.578;13.426;2022-10-17T13:27:21;7.10;;;3.30;;
4756;SDS011;2392;52.578;13.426;2022-10-17T13:29:49;10.33;;;3.53;;
4756;SDS011;2392;52.578;13.426;2022-10-17T13:32:16;10.50;;;3.77;;
4756;SDS011;2392;52.578;13.426;2022-10-17T13:34:44;5.20;;;3.40;;
4756;SDS011;2392;52.578;13.426;2022-10-17T13:37:12;5.30;;;3.40;;
4756;SDS011;2392;52.578;13.426;2022-10-17T13:39:41;6.53;;;3.30;;
4756;SDS011;2392;52.578;13.426;2022-10-17T13:42:15;3.07;;;2.87;;
4756;SDS011;2392;52.578;13.426;2022-10-17T13:44:46;7.60;;;3.00;;
4756;SDS011;2392;52.578;13.426;2022-10-17T13:47:20;3.90;;;3.60;;
4756;SDS011;2392;52.578;13.426;2022-10-17T13:49:50;5.73;;;3.37;;
4756;SDS011;2392;52.578;13.426;2022-10-17T13:52:18;7.33;;;3.10;;
4756;SDS011;2392;52.578;13.426;2022-10-17T13:54:47;14.87;;;4.00;;
4756;SDS011;2392;52.578;13.426;2022-10-17T13:57:17;3.07;;;2.87;;
4756;SDS011;2392;52.578;13.426;2022-10-17T13:59:46;3.33;;;3.10;;
4756;SDS011;2392;52.578;13.426;2022-10-17T14:02:21;11.83;;;3.50;;
4756;SDS011;2392;52.578;13.426;2022-10-17T14:05:01;5.40;;;3.53;;
4756;SDS011;2392;52.578;13.426;2022-10-17T14:07:33;4.00;;;2.73;;
4756;SDS011;2392;52.578;13.426;2022-10-17T14:10:05;5.33;;;3.10;;
4756;SDS011;2392;52.578;13.426;2022-10-17T14:12:42;7.17;;;3.30;;
4756;SDS011;2392;52.578;13.426;2022-10-17T14:15:11;5.53;;;3.43;;
4756;SDS011;2392;52.578;13.426;2022-10-17T14:17:39;11.77;;;6.70;;
4756;SDS011;2392;52.578;13.426;2022-10-17T14:20:16;7.27;;;3.03;;
4756;SDS011;2392;52.578;13.426;2022-10-17T14:22:44;5.20;;;3.13;;
4756;SDS011;2392;52.578;13.426;2022-10-17T14:25:28;5.27;;;3.03;;
4756;SDS011;2392;52.578;13.426;2022-10-17T14:27:59;4.33;;;3.70;;
4756;SDS011;2392;52.578;13.426;2022-10-17T14:30:33;4.50;;;3.50;;
4756;SDS011;2392;52.578;13.426;2022-10-17T14:33:02;7.67;;;3.40;;
4756;SDS011;2392;52.578;13.426;2022-10-17T14:35:33;4.37;;;3.13;;
4756;SDS011;2392;52.578;13.426;2022-10-17T14:38:01;4.80;;;3.17;;
4756;SDS011;2392;52.578;13.426;2022-10-17T14:40:30;3.67;;;2.80;;
4756;SDS011;2392;52.578;13.426;2022-10-17T14:43:01;2.60;;;2.40;;
4756;SDS011;2392;52.578;13.426;2022-10-17T14:45:31;3.80;;;3.07;;
4756;SDS011;2392;52.578;13.426;2022-10-17T14:48:00;3.03;;;2.57;;
4756;SDS011;2392;52.578;13.426;2022-10-17T14:50:30;12.93;;;3.33;;
4756;SDS011;2392;52.578;13.426;2022-10-17T14:53:02;5.80;;;2.77;;
4756;SDS011;2392;52.578;13.426;2022-10-17T14:55:31;3.40;;;3.10;;
4756;SDS011;2392;52.578;13.426;2022-10-17T14:57:59;5.40;;;3.10;;
4756;SDS011;2392;52.578;13.426;2022-10-17T15:00:26;7.20;;;2.90;;
4756;SDS011;2392;52.578;13.426;2022-10-17T15:02:54;5.00;;;3.00;;
4756;SDS011;2392;52.578;13.426;2022-10-17T15:05:21;7.27;;;3.57;;
4756;SDS011;2392;52.578;13.426;2022-10-17T15:07:49;3.90;;;2.90;;
4756;SDS011;2392;52.578;13.426;2022-10-17T15:10:22;8.67;;;3.20;;
4756;SDS011;2392;52.578;13.426;2022-10-17T15:12:56;3.77;;;3.20;;
4756;SDS011;2392;52.578;13.426;2022-10-17T15:15:24;7.43;;;3.10;;
4756;SDS011;2392;52.578;13.426;2022-10-17T15:17:51;5.47;;;3.33;;
4756;SDS011;2392;52.578;13.426;2022-10-17T15:20:18;4.40;;;2.97;;
4756;SDS011;2392;52.578;13.426;2022-10-17T15:22:45;11.77;;;3.70;;
4756;SDS011;2392;52.578;13.426;2022-10-17T15:25:12;5.70;;;3.13;;
4756;SDS011;2392;52.578;13.426;2022-10-17T15:27:40;6.20;;;3.40;;
4756;SDS011;2392;52.578;13.426;2022-10-17T15:30:11;4.93;;;2.63;;
4756;SDS011;2392;52.578;13.426;2022-10-17T15:32:44;6.77;;;4.00;;
4756;SDS011;2392;52.578;13.426;2022-10-17T15:35:11;11.03;;;3.20;;
4756;SDS011;2392;52.578;13.426;2022-10-17T15:37:38;5.47;;;3.77;;
4756;SDS011;2392;52.578;13.426;2022-10-17T15:40:05;4.77;;;3.90;;
4756;SDS011;2392;52.578;13.426;2022-10-17T15:42:35;9.83;;;4.10;;
4756;SDS011;2392;52.578;13.426;2022-10-17T15:45:04;9.73;;;3.90;;